Time;durP1;ratioP1;P1;durP2;ratioP2;P2;SDS_P1;SDS_P2;PMS_P1;PMS_P2;Temp;Humidity;BMP_temperature;BMP_pressure;BME280_temperature;BME280_humidity;BME280_pressure;Samples;Min_cycle;Max_cycle;Signal;HPM_P1;HPM_P2
2022/08/03 00:02:25;;;;;;;7.90;4.22;;;538.40;1638.40;;;;;;5024373;28;20061;-76
2022/08/03 00:04:51;;;;;;;8.32;4.22;;;;;;;;;;5014539;28;20057;-76
2022/08/03 00:07:17;;;;;;;7.35;4.97;;;;;;;;;;5027971;28;20026;-76
2022/08/03 00:09:43;;;;;;;7.95;5.18;;;;;;;;;;5032528;28;20050;-76
2022/08/03 00:12:09;;;;;;;8.10;4.75;;;;;;;;;;5032714;28;20067;-76
2022/08/03 00:14:35;;;;;;;9.65;4.97;;;;;;;;;;5033985;28;20036;-76
2022/08/03 00:17:02;;;;;;;5.78;4.50;;;;;;;;;;5032487;28;20025;-76
2022/08/03 00:19:28;;;;;;;9.75;4.95;;;;;;;;;;5032436;28;20362;-75
2022/08/03 00:21:54;;;;;;;13.48;5.35;;;;;;;;;;5032836;28;20021;-75
2022/08/03 00:24:20;;;;;;;9.70;6.47;;;;;;;;;;5020488;28;20092;-75
2022/08/03 00:26:46;;;;;;;6.45;4.38;;;;;;;;;;5033269;28;20033;-76
2022/08/03 00:29:12;;;;;;;8.35;5.43;;;;;;;;;;5033306;28;20465;-79
2022/08/03 00:31:39;;;;;;;5.03;4.00;;;;;;;;;;5033488;28;20045;-78
2022/08/03 00:34:05;;;;;;;7.32;4.68;;;;;;;;;;5032172;28;20018;-76
2022/08/03 00:36:31;;;;;;;9.63;4.75;;;;;;;;;;5033584;28;20116;-76
2022/08/03 00:38:57;;;;;;;5.95;4.57;;;;;;;;;;5031932;28;20021;-75
2022/08/03 00:41:23;;;;;;;6.93;4.50;;;;;;;;;;5031901;28;20021;-74
2022/08/03 00:43:49;;;;;;;6.35;4.70;;;537.70;1792.00;;;;;;5033144;28;20067;-75
2022/08/03 00:46:15;;;;;;;8.35;5.57;;;537.60;1843.20;;;;;;5033248;28;20033;-76
2022/08/03 00:48:41;;;;;;;7.00;4.47;;;512.90;1792.00;;;;;;5032914;28;20018;-76
2022/08/03 00:51:07;;;;;;;6.57;4.30;;;512.90;1792.00;;;;;;5032036;28;20029;-79
2022/08/03 00:53:35;;;;;;;10.90;5.65;;;537.60;1817.60;;;;;;5033208;28;20045;-75
2022/08/03 00:56:01;;;;;;;8.43;4.88;;;512.90;1766.40;;;;;;5032042;28;20086;-78
2022/08/03 00:58:26;;;;;;;5.05;4.53;;;512.90;1792.00;;;;;;5032274;28;20501;-77
2022/08/03 01:00:52;;;;;;;6.38;4.32;;;512.90;1792.00;;;;;;5033643;28;20661;-76
2022/08/03 01:03:18;;;;;;;7.43;5.32;;;537.60;1792.00;;;;;;5020239;28;20037;-78
2022/08/03 01:06:16;;;;;;;6.00;5.00;;;537.90;1766.40;;;;;;5029144;28;20042;-76
2022/08/03 01:09:01;;;;;;;7.47;5.40;;;537.90;1766.40;;;;;;5016023;28;20049;-77
2022/08/03 01:11:44;;;;;;;12.40;7.18;;;537.80;1766.40;;;;;;5032924;28;20102;-76
2022/08/03 01:14:13;;;;;;;9.80;6.22;;;537.70;1766.40;;;;;;5018950;28;20025;-76
2022/08/03 01:16:58;;;;;;;5.55;4.75;;;537.80;1766.40;;;;;;5034359;28;20131;-76
2022/08/03 01:19:45;;;;;;;7.53;4.97;;;537.80;1740.80;;;;;;5034985;28;20033;-76
2022/08/03 01:22:48;;;;;;;8.57;5.72;;;537.90;1740.80;;;;;;5035429;28;20025;-76
2022/08/03 01:25:31;;;;;;;7.28;4.68;;;537.80;1766.40;;;;;;5035209;28;20144;-78
2022/08/03 01:28:08;;;;;;;11.48;6.03;;;537.80;1766.40;;;;;;5035818;28;20022;-75
2022/08/03 01:30:36;;;;;;;8.98;5.05;;;537.70;1792.00;;;;;;5033412;28;20025;-76
2022/08/03 01:33:14;;;;;;;7.75;4.90;;;537.70;1792.00;;;;;;5033380;28;20214;-76
2022/08/03 01:35:58;;;;;;;11.30;5.95;;;537.60;1817.60;;;;;;5032844;28;20025;-75
2022/08/03 01:38:29;;;;;;;7.80;5.28;;;512.90;1792.00;;;;;;5033695;28;20032;-75
2022/08/03 01:40:56;;;;;;;8.85;4.75;;;;;;;;;;5031697;28;20068;-76
2022/08/03 01:43:27;;;;;;;10.88;5.07;;;;;;;;;;5033171;28;20032;-76
2022/08/03 01:45:54;;;;;;;7.15;5.40;;;;;;;;;;5033486;28;20095;-76
2022/08/03 01:48:20;;;;;;;7.70;5.30;;;;;;;;;;5027206;28;20013;-74
2022/08/03 01:50:47;;;;;;;8.77;5.50;;;;;;;;;;5038844;28;20030;-75
2022/08/03 01:53:15;;;;;;;11.52;6.38;;;512.90;1817.60;;;;;;5032408;28;20021;-77
2022/08/03 01:55:45;;;;;;;9.88;5.90;;;512.70;1843.20;;;;;;5032593;28;20048;-75
2022/08/03 01:58:12;;;;;;;8.13;6.47;;;512.60;1868.80;;;;;;5032511;28;20018;-76
2022/08/03 02:00:40;;;;;;;11.10;5.90;;;512.50;1894.40;;;;;;5032658;28;20112;-76
2022/08/03 02:03:07;;;;;;;10.27;5.57;;;512.50;1894.40;;;;;;5031872;28;20026;-86
2022/08/03 02:05:34;;;;;;;11.88;5.45;;;512.40;1894.40;;;;;;5032491;28;20049;-77
2022/08/03 02:08:02;;;;;;;11.85;5.50;;;512.60;1894.40;;;;;;5032975;28;20030;-78
2022/08/03 02:10:29;;;;;;;10.82;7.40;;;512.40;1920.00;;;;;;5032747;28;20049;-75
2022/08/03 02:12:57;;;;;;;9.48;6.60;;;512.40;1920.00;;;;;;5032563;28;20025;-76
2022/08/03 02:15:24;;;;;;;9.05;5.95;;;512.50;1920.00;;;;;;5032307;28;20029;-75
2022/08/03 02:17:52;;;;;;;8.93;6.13;;;512.50;1945.60;;;;;;5031660;28;20033;-78
2022/08/03 02:20:19;;;;;;;8.27;6.60;;;512.40;1945.60;;;;;;5032430;28;20021;-76
2022/08/03 02:22:46;;;;;;;6.55;5.72;;;;;;;;;;5030868;28;20465;-79
2022/08/03 02:25:13;;;;;;;8.68;5.65;;;;;;;;;;5032068;28;20033;-76
2022/08/03 02:27:48;;;;;;;7.43;6.50;;;512.50;1945.60;;;;;;5018432;28;20017;-76
2022/08/03 02:30:14;;;;;;;6.65;5.95;;;512.30;1945.60;;;;;;5030653;28;20025;-78
2022/08/03 02:32:46;;;;;;;10.63;6.00;;;512.10;1996.80;;;;;;5031902;28;20032;-78
2022/08/03 02:35:15;;;;;;;7.38;5.53;;;512.00;2022.40;;;;;;5030573;28;20033;-76
2022/08/03 02:37:45;;;;;;;12.35;6.82;;;487.30;2022.40;;;;;;5030077;28;20026;-75
2022/08/03 02:40:12;;;;;;;8.77;5.82;;;487.30;2048.00;;;;;;5028320;28;20021;-76
2022/08/03 02:42:41;;;;;;;8.13;6.50;;;487.30;2048.00;;;;;;5031568;28;20043;-76
2022/08/03 02:45:13;;;;;;;7.45;6.20;;;512.00;2022.40;;;;;;5030232;28;20117;-74
2022/08/03 02:47:41;;;;;;;16.65;6.45;;;512.00;2048.00;;;;;;5031848;28;20025;-76
2022/08/03 02:50:11;;;;;;;8.25;7.18;;;487.20;2073.60;;;;;;5031130;28;20021;-77
2022/08/03 02:52:38;;;;;;;9.57;6.05;;;487.10;2099.20;;;;;;5030230;28;20029;-76
2022/08/03 02:55:07;;;;;;;9.63;6.38;;;487.10;2099.20;;;;;;5031199;28;20021;-76
2022/08/03 02:57:36;;;;;;;7.30;5.95;;;487.10;2099.20;;;;;;5029926;28;20025;-76
2022/08/03 03:00:03;;;;;;;8.43;7.15;;;487.00;2124.80;;;;;;5016200;28;20022;-76
2022/08/03 03:02:29;;;;;;;6.75;5.80;;;487.10;2124.80;;;;;;5029900;28;20049;-76
2022/08/03 03:04:56;;;;;;;9.77;6.70;;;487.00;2124.80;;;;;;5033878;28;20026;-77
2022/08/03 03:07:22;;;;;;;8.13;6.43;;;487.10;2099.20;;;;;;5035470;28;20531;-75
2022/08/03 03:09:48;;;;;;;9.93;6.57;;;487.10;2124.80;;;;;;5033660;28;20187;-77
2022/08/03 03:12:16;;;;;;;9.30;5.75;;;487.10;2124.80;;;;;;5031614;28;20032;-76
2022/08/03 03:14:42;;;;;;;7.25;5.50;;;487.00;2124.80;;;;;;5030275;28;20033;-78
2022/08/03 03:17:10;;;;;;;9.98;6.50;;;487.00;2124.80;;;;;;5036685;28;20029;-75
2022/08/03 03:19:38;;;;;;;8.23;6.20;;;487.10;2099.20;;;;;;5028444;28;20043;-75
2022/08/03 03:22:05;;;;;;;7.28;5.90;;;487.10;2099.20;;;;;;5029912;28;20029;-76
2022/08/03 03:24:32;;;;;;;12.25;6.88;;;487.00;2124.80;;;;;;5035262;28;20037;-75
2022/08/03 03:26:58;;;;;;;8.15;6.80;;;487.00;2124.80;;;;;;5033612;28;20397;-75
2022/08/03 03:29:24;;;;;;;11.52;6.53;;;487.00;2124.80;;;;;;5034848;28;20037;-76
2022/08/03 03:31:50;;;;;;;9.05;7.03;;;487.10;2124.80;;;;;;5033475;28;20488;-75
2022/08/03 03:34:16;;;;;;;7.32;6.55;;;;;;;;;;5033276;28;20112;-75
2022/08/03 03:36:42;;;;;;;13.77;7.00;;;;;;;;;;5034262;28;20128;-78
2022/08/03 03:39:09;;;;;;;9.18;6.85;;;;;;;;;;5033291;28;20424;-76
2022/08/03 03:41:35;;;;;;;11.18;6.72;;;;;;;;;;5034430;28;20116;-76
2022/08/03 03:44:01;;;;;;;9.25;6.95;;;;;;;;;;5034594;28;20473;-77
2022/08/03 03:46:28;;;;;;;12.82;6.72;;;;;;;;;;5034021;28;20029;-77
2022/08/03 03:48:54;;;;;;;9.77;6.88;;;;;;;;;;5034462;28;20017;-76
2022/08/03 03:51:20;;;;;;;8.95;5.90;;;486.80;2176.00;;;;;;5034670;28;20025;-75
2022/08/03 03:53:59;;;;;;;10.30;6.78;;;;;;;;;;5033891;28;20388;-75
2022/08/03 03:56:25;;;;;;;10.93;7.25;;;;;;;;;;5034255;28;20034;-75
2022/08/03 03:58:51;;;;;;;11.00;7.30;;;;;;;;;;5032750;28;20108;-76
2022/08/03 04:01:18;;;;;;;9.15;6.63;;;;;;;;;;5032803;28;20033;-75
2022/08/03 04:03:44;;;;;;;9.85;6.43;;;;;;;;;;5033836;28;20089;-76
2022/08/03 04:10:57;;;;;;;12.27;7.85;;;;;;;;;;5033770;28;20060;-76
2022/08/03 04:11:52;;;;;;;12.48;7.63;;;;;;;;;;5033215;28;20463;-76
2022/08/03 04:14:26;;;;;;;16.70;7.78;;;;;;;;;;5033289;28;20048;-75
2022/08/03 04:17:03;;;;;;;9.57;6.38;;;;;;;;;;5033645;28;20037;-76
2022/08/03 04:19:32;;;;;;;11.65;7.97;;;;;;;;;;5034043;28;20036;-75
2022/08/03 04:22:04;;;;;;;18.00;6.35;;;;;;;;;;5033622;28;20034;-75
2022/08/03 04:24:35;;;;;;;10.02;6.32;;;;;;;;;;5032344;28;20025;-75
2022/08/03 04:27:04;;;;;;;8.93;6.07;;;;;;;;;;5031241;28;20033;-77
2022/08/03 04:29:32;;;;;;;6.75;5.85;;;;;;;;;;5027974;28;20184;-75
2022/08/03 04:31:59;;;;;;;9.38;6.72;;;;;;;;;;5030149;28;20029;-76
2022/08/03 04:34:25;;;;;;;13.13;6.05;;;;;;;;;;5033770;28;21051;-76
2022/08/03 04:36:56;;;;;;;10.60;6.85;;;;;;;;;;5032059;28;20026;-80
2022/08/03 04:39:26;;;;;;;7.47;5.63;;;;;;;;;;5032937;28;20023;-75
2022/08/03 04:41:56;;;;;;;9.80;6.75;;;;;;;;;;5033015;28;20024;-76
2022/08/03 04:44:23;;;;;;;9.00;6.38;;;;;;;;;;5031331;28;20029;-74
2022/08/03 04:46:50;;;;;;;14.48;7.53;;;;;;;;;;5026768;28;20481;-75
2022/08/03 04:49:16;;;;;;;8.43;6.63;;;;;;;;;;5027254;28;20117;-77
2022/08/03 04:51:42;;;;;;;8.73;6.10;;;537.60;2048.00;;;;;;5030173;28;20033;-76
2022/08/03 04:54:12;;;;;;;9.20;6.68;;;512.90;1996.80;;;;;;5032314;28;20032;-76
2022/08/03 04:56:42;;;;;;;10.55;7.88;;;512.90;2022.40;;;;;;5032924;28;20026;-75
2022/08/03 04:59:08;;;;;;;16.40;8.20;;;512.70;2022.40;;;;;;5031846;28;20029;-76
2022/08/03 05:01:34;;;;;;;9.55;6.53;;;512.80;2022.40;;;;;;5030639;28;20021;-76
2022/08/03 05:04:00;;;;;;;10.75;6.80;;;512.80;2048.00;;;;;;5025297;28;20029;-75
2022/08/03 05:06:26;;;;;;;11.98;7.22;;;512.80;2048.00;;;;;;5027454;28;20549;-76
2022/08/03 05:08:51;;;;;;;16.38;6.93;;;512.90;2048.00;;;;;;5031125;28;20056;-76
2022/08/03 05:11:18;;;;;;;8.82;6.82;;;;;;;;;;5031853;28;20376;-75
2022/08/03 05:13:44;;;;;;;14.65;8.05;;;;;;;;;;5031416;28;20021;-76
2022/08/03 05:16:11;;;;;;;10.75;6.63;;;;;;;;;;5029789;28;20019;-76
2022/08/03 05:18:37;;;;;;;10.10;6.30;;;;;;;;;;5032181;28;20093;-77
2022/08/03 05:21:03;;;;;;;6.90;6.20;;;;;;;;;;5027893;28;20433;-75
2022/08/03 05:23:30;;;;;;;7.20;6.40;;;;;;;;;;5028156;28;20028;-75
2022/08/03 05:25:56;;;;;;;10.15;8.93;;;;;;;;;;5021159;28;20026;-76
2022/08/03 05:28:22;;;;;;;8.23;7.20;;;;;;;;;;5028462;28;20025;-75
2022/08/03 05:30:48;;;;;;;13.55;7.72;;;;;;;;;;5028962;28;20026;-76
2022/08/03 05:33:14;;;;;;;9.57;7.63;;;;;;;;;;5031948;28;20049;-77
2022/08/03 05:35:40;;;;;;;12.75;6.57;;;;;;;;;;5030433;28;20159;-76
2022/08/03 05:38:06;;;;;;;10.77;8.32;;;;;;;;;;5030631;28;20028;-75
2022/08/03 05:40:32;;;;;;;9.90;6.53;;;;;;;;;;5031416;28;20113;-76
2022/08/03 05:42:58;;;;;;;8.63;6.43;;;;;;;;;;5030210;28;20017;-76
2022/08/03 05:45:25;;;;;;;12.57;6.38;;;;;;;;;;5031270;28;20292;-75
2022/08/03 05:47:51;;;;;;;9.85;7.20;;;;;;;;;;5030034;28;20022;-76
2022/08/03 05:50:17;;;;;;;8.20;6.95;;;;;;;;;;5028670;28;20021;-77
2022/08/03 05:52:44;;;;;;;8.43;6.32;;;;;;;;;;5029907;28;20018;-77
2022/08/03 05:55:10;;;;;;;10.07;6.95;;;;;;;;;;5030075;28;20017;-75
2022/08/03 05:57:37;;;;;;;7.45;6.13;;;;;;;;;;5028733;28;20057;-77
2022/08/03 06:00:10;;;;;;;12.50;6.78;;;;;;;;;;5028498;28;20116;-77
2022/08/03 06:02:37;;;;;;;10.63;6.97;;;;;;;;;;5031731;28;20026;-75
2022/08/03 06:05:03;;;;;;;8.25;6.78;;;;;;;;;;5028856;28;20018;-74
2022/08/03 06:07:29;;;;;;;14.82;10.93;;;;;;;;;;5027077;28;20040;-75
2022/08/03 06:09:55;;;;;;;12.52;5.90;;;;;;;;;;5020914;28;20046;-75
2022/08/03 06:12:21;;;;;;;7.97;6.25;;;;;;;;;;5018074;28;20022;-75
2022/08/03 06:14:47;;;;;;;13.25;8.73;;;;;;;;;;5017746;28;20104;-78
2022/08/03 06:17:13;;;;;;;16.02;8.20;;;;;;;;;;5029849;28;20060;-75
2022/08/03 06:19:40;;;;;;;11.15;8.07;;;;;;;;;;5031504;28;20032;-75
2022/08/03 06:22:06;;;;;;;13.38;5.55;;;;;;;;;;5031236;28;20025;-75
2022/08/03 06:24:32;;;;;;;14.65;6.63;;;;;;;;;;5031216;28;20120;-75
2022/08/03 06:26:58;;;;;;;9.82;6.40;;;;;;;;;;5030072;28;20033;-75
2022/08/03 06:29:24;;;;;;;12.73;6.32;;;;;;;;;;5031600;28;20389;-75
2022/08/03 06:31:50;;;;;;;17.23;10.48;;;;;;;;;;5029848;28;20424;-75
2022/08/03 06:34:16;;;;;;;9.45;5.82;;;;;;;;;;5031129;28;20026;-75
2022/08/03 06:36:42;;;;;;;8.38;6.95;;;;;;;;;;5030712;28;20063;-76
2022/08/03 06:39:08;;;;;;;13.45;6.95;;;;;;;;;;5030581;28;20030;-76
2022/08/03 06:41:34;;;;;;;10.07;6.65;;;;;;;;;;5029728;28;20062;-75
2022/08/03 06:44:00;;;;;;;11.15;7.07;;;;;;;;;;5030965;28;20422;-75
2022/08/03 06:46:26;;;;;;;22.20;7.55;;;;;;;;;;5029475;28;20413;-75
2022/08/03 06:48:52;;;;;;;7.05;5.60;;;;;;;;;;5030995;28;20100;-75
2022/08/03 06:51:18;;;;;;;7.10;5.68;;;;;;;;;;5031300;28;20047;-75
2022/08/03 06:53:44;;;;;;;6.85;5.15;;;;;;;;;;5031167;28;20024;-77
2022/08/03 06:56:10;;;;;;;6.22;4.53;;;;;;;;;;5031059;28;20018;-78
2022/08/03 06:58:37;;;;;;;11.88;5.78;;;;;;;;;;5030688;28;20022;-76
2022/08/03 07:01:03;;;;;;;5.60;4.50;;;;;;;;;;5030852;28;20100;-76
2022/08/03 07:03:29;;;;;;;10.15;5.13;;;;;;;;;;5030522;28;20022;-75
2022/08/03 07:05:55;;;;;;;5.63;4.65;;;;;;;;;;5030901;28;20042;-75
2022/08/03 07:08:23;;;;;;;8.50;4.53;;;;;;;;;;5030889;28;20025;-75
2022/08/03 07:10:49;;;;;;;7.53;6.03;;;;;;;;;;5022100;28;20026;-76
2022/08/03 07:13:15;;;;;;;8.68;6.20;;;;;;;;;;5024741;28;20025;-76
2022/08/03 07:15:41;;;;;;;10.88;7.05;;;;;;;;;;5025146;28;20026;-77
2022/08/03 07:18:07;;;;;;;5.75;5.18;;;;;;;;;;5023036;28;20022;-75
2022/08/03 07:20:33;;;;;;;10.05;6.32;;;;;;;;;;5029615;28;20009;-76
2022/08/03 07:22:59;;;;;;;6.70;4.32;;;;;;;;;;5021300;28;20018;-75
2022/08/03 07:25:25;;;;;;;11.10;5.15;;;;;;;;;;5026508;28;20400;-76
2022/08/03 07:27:51;;;;;;;4.55;4.03;;;;;;;;;;5031110;28;20049;-76
2022/08/03 07:30:18;;;;;;;7.20;4.38;;;;;;;;;;5031678;28;20125;-76
2022/08/03 07:32:44;;;;;;;15.20;12.43;;;;;;;;;;5019827;28;20021;-76
2022/08/03 07:35:10;;;;;;;11.13;6.18;;;;;;;;;;5032503;28;20076;-77
2022/08/03 07:37:36;;;;;;;6.57;5.00;;;;;;;;;;5033160;28;20416;-75
2022/08/03 07:40:04;;;;;;;6.32;4.30;;;;;;;;;;5028864;28;20018;-76
2022/08/03 07:42:30;;;;;;;7.80;4.90;;;;;;;;;;5030551;28;20026;-76
2022/08/03 07:44:56;;;;;;;5.28;4.35;;;;;;;;;;5030651;28;20014;-75
2022/08/03 07:47:23;;;;;;;5.57;4.68;;;;;;;;;;5030659;28;20034;-77
2022/08/03 07:49:49;;;;;;;8.35;4.95;;;;;;;;;;5032067;28;20067;-76
2022/08/03 07:55:00;;;;;;;7.25;5.18;;;;;;;;;;5034117;28;20146;-76
2022/08/03 07:57:26;;;;;;;5.57;4.68;;;;;;;;;;5033867;28;20419;-75
2022/08/03 07:59:52;;;;;;;5.88;4.97;;;;;;;;;;5033986;28;20021;-75
2022/08/03 08:02:18;;;;;;;8.77;4.22;;;;;;;;;;5034276;28;20018;-76
2022/08/03 08:04:45;;;;;;;9.10;4.50;;;;;;;;;;5032733;28;20022;-77
2022/08/03 08:07:11;;;;;;;6.07;5.03;;;;;;;;;;5034004;28;20079;-75
2022/08/03 08:09:37;;;;;;;7.60;5.18;;;;;;;;;;5033545;28;20049;-74
2022/08/03 08:12:03;;;;;;;5.28;3.90;;;;;;;;;;5016235;28;20022;-75
2022/08/03 08:14:29;;;;;;;7.22;4.40;;;;;;;;;;5055900;28;20057;-75
2022/08/03 08:16:55;;;;;;;9.13;4.47;;;;;;;;;;5033594;28;20028;-74
2022/08/03 08:19:21;;;;;;;7.10;4.50;;;;;;;;;;5033586;28;20128;-75
2022/08/03 08:21:47;;;;;;;5.32;3.25;;;;;;;;;;5033446;28;20026;-76
2022/08/03 08:24:13;;;;;;;4.95;3.78;;;;;;;;;;5019662;28;20010;-75
2022/08/03 08:26:39;;;;;;;4.63;3.80;;;;;;;;;;5032346;28;20037;-75
2022/08/03 08:29:05;;;;;;;9.00;4.97;;;;;;;;;;5033664;28;20067;-76
2022/08/03 08:31:32;;;;;;;5.05;3.92;;;;;;;;;;5033588;28;20021;-75
2022/08/03 08:33:58;;;;;;;9.45;4.22;;;;;;;;;;5020763;28;20423;-75
2022/08/03 08:36:24;;;;;;;5.47;3.65;;;;;;;;;;5036739;28;20546;-76
2022/08/03 08:38:50;;;;;;;7.03;4.65;;;;;;;;;;5021241;28;20026;-76
2022/08/03 08:41:16;;;;;;;5.00;3.50;;;;;;;;;;5033466;28;20037;-75
2022/08/03 08:43:42;;;;;;;8.98;3.90;;;;;;;;;;5029299;28;20119;-75
2022/08/03 08:46:12;;;;;;;6.13;3.85;;;;;;;;;;5037329;28;20550;-75
2022/08/03 08:48:40;;;;;;;6.85;3.33;;;;;;;;;;5035784;28;20029;-75
2022/08/03 08:51:08;;;;;;;5.22;2.85;;;;;;;;;;5034520;28;20034;-77
2022/08/03 08:53:36;;;;;;;3.60;2.35;;;;;;;;;;5038492;28;20028;-75
2022/08/03 08:56:03;;;;;;;4.25;3.13;;;;;;;;;;5037652;28;20091;-76
2022/08/03 08:58:33;;;;;;;5.53;3.00;;;;;;;;;;5039305;28;20421;-75
2022/08/03 09:01:01;;;;;;;4.57;2.88;;;;;;;;;;5036327;28;20026;-74
2022/08/03 09:03:30;;;;;;;3.22;2.65;;;;;;;;;;5031339;28;20503;-77
2022/08/03 09:05:56;;;;;;;4.75;2.70;;;;;;;;;;5032571;28;20607;-76
2022/08/03 09:08:22;;;;;;;4.28;2.60;;;;;;;;;;5032570;28;20033;-75
2022/08/03 09:10:48;;;;;;;10.23;3.08;;;;;;;;;;5032936;28;20026;-76
2022/08/03 09:13:15;;;;;;;5.15;2.83;;;;;;;;;;5033950;28;20049;-74
2022/08/03 09:15:41;;;;;;;9.75;3.20;;;;;;;;;;5034600;28;20068;-75
2022/08/03 09:18:08;;;;;;;6.43;3.20;;;;;;;;;;5033112;28;20024;-75
2022/08/03 09:20:35;;;;;;;6.70;2.72;;;;;;;;;;5033442;28;20491;-75
2022/08/03 09:23:07;;;;;;;5.97;2.58;;;;;;;;;;5032578;28;20053;-75
2022/08/03 09:25:44;;;;;;;4.00;2.97;;;;;;;;;;5032514;28;20484;-74
2022/08/03 09:28:12;;;;;;;6.78;3.13;;;;;;;;;;5033071;28;20033;-76
2022/08/03 09:30:39;;;;;;;6.75;2.45;;;;;;;;;;5031377;28;20407;-75
2022/08/03 09:33:15;;;;;;;5.80;3.03;;;;;;;;;;5032229;28;20473;-77
2022/08/03 09:35:48;;;;;;;5.20;2.83;;;;;;;;;;5031278;28;20040;-76
2022/08/03 09:38:17;;;;;;;4.60;3.08;;;;;;;;;;5022024;28;20440;-79
2022/08/03 09:40:44;;;;;;;5.82;3.42;;;;;;;;;;5028075;28;20538;-76
2022/08/03 09:43:10;;;;;;;9.32;3.10;;;;;;;;;;5018122;28;20092;-77
2022/08/03 09:45:37;;;;;;;4.93;2.90;;;;;;;;;;5030435;28;20069;-78
2022/08/03 09:48:22;;;;;;;3.88;2.60;;;;;;;;;;5030473;28;20451;-77
2022/08/03 09:50:52;;;;;;;6.38;3.33;;;;;;;;;;5030801;28;20496;-77
2022/08/03 09:53:19;;;;;;;4.07;2.90;;;;;;;;;;5028978;28;20112;-76
2022/08/03 09:55:52;;;;;;;8.90;3.47;;;;;;;;;;5022180;28;20104;-76
2022/08/03 09:58:22;;;;;;;7.28;3.67;;;;;;;;;;5034726;28;20109;-76
2022/08/03 10:00:55;;;;;;;4.40;3.17;;;;;;;;;;5036729;28;20072;-76
2022/08/03 10:03:22;;;;;;;5.63;3.42;;;;;;;;;;5034031;28;20036;-76
2022/08/03 10:05:48;;;;;;;8.10;3.72;;;;;;;;;;5034243;28;20568;-76
2022/08/03 10:08:18;;;;;;;6.15;3.70;;;;;;;;;;5031981;28;20025;-76
2022/08/03 10:10:45;;;;;;;4.47;3.05;;;;;;;;;;5032037;28;20018;-76
2022/08/03 10:13:12;;;;;;;4.88;3.40;;;;;;;;;;5030442;28;20404;-76
2022/08/03 10:15:39;;;;;;;5.95;3.97;;;;;;;;;;5031613;28;20029;-76
2022/08/03 10:18:05;;;;;;;7.10;3.22;;;;;;;;;;5031926;28;20028;-75
2022/08/03 10:20:32;;;;;;;3.97;3.17;;;;;;;;;;5031800;28;20022;-77
2022/08/03 10:22:59;;;;;;;7.40;3.78;;;;;;;;;;5031869;28;20104;-76
2022/08/03 10:25:25;;;;;;;8.82;3.25;;;;;;;;;;5032500;28;20025;-76
2022/08/03 10:27:53;;;;;;;8.35;3.90;;;;;;;;;;5031260;28;20433;-76
2022/08/03 10:30:19;;;;;;;7.63;2.88;;;;;;;;;;5032405;28;20432;-80
2022/08/03 10:32:51;;;;;;;10.15;3.83;;;;;;;;;;5030598;28;20053;-76
2022/08/03 10:35:19;;;;;;;16.08;4.18;;;;;;;;;;5031169;28;20028;-76
2022/08/03 10:38:05;;;;;;;13.20;4.32;;;;;;;;;;5031260;28;20396;-77
2022/08/03 10:40:32;;;;;;;6.60;3.78;;;;;;;;;;5031790;28;20030;-78
2022/08/03 10:43:09;;;;;;;5.60;3.60;;;;;;;;;;5031813;28;20091;-76
2022/08/03 10:45:38;;;;;;;5.47;4.18;;;;;;;;;;5020781;28;20022;-76
2022/08/03 10:48:04;;;;;;;7.78;3.45;;;;;;;;;;5030896;28;20022;-77
2022/08/03 10:50:30;;;;;;;6.10;3.60;;;;;;;;;;5032192;28;20036;-76
2022/08/03 10:52:57;;;;;;;5.18;3.47;;;;;;;;;;5033140;28;20026;-77
2022/08/03 10:58:45;;;;;;;7.55;3.25;;;;;;;;;;5033784;28;20091;-76
2022/08/03 11:01:11;;;;;;;6.63;3.63;;;;;;;;;;5033040;28;20025;-77
2022/08/03 11:03:53;;;;;;;6.75;6.07;;;;;;;;;;5033329;28;20024;-78
2022/08/03 11:06:20;;;;;;;11.50;9.88;;;;;;;;;;5032045;28;20138;-79
2022/08/03 11:08:47;;;;;;;10.48;4.05;;;;;;;;;;5031506;28;20037;-79
2022/08/03 11:11:18;;;;;;;8.80;7.53;;;;;;;;;;5027448;28;20022;-78
2022/08/03 11:14:14;;;;;;;9.38;5.15;;;;;;;;;;5029543;28;20049;-77
2022/08/03 11:16:41;;;;;;;9.35;4.03;;;;;;;;;;5027007;28;20088;-77
2022/08/03 11:19:09;;;;;;;14.93;7.97;;;;;;;;;;5031746;28;20454;-79
2022/08/03 11:21:50;;;;;;;7.05;3.20;;;;;;;;;;5032222;28;20029;-77
2022/08/03 11:24:35;;;;;;;5.93;3.55;;;;;;;;;;5019326;28;20381;-76
2022/08/03 11:27:19;;;;;;;5.35;3.70;;;;;;;;;;5035887;28;20038;-74
2022/08/03 11:29:58;;;;;;;3.92;3.25;;;;;;;;;;5035704;28;20029;-77
2022/08/03 11:32:39;;;;;;;17.98;13.38;;;;;;;;;;5036315;28;20133;-75
2022/08/03 11:35:08;;;;;;;17.08;10.95;;;;;;;;;;5036584;28;20021;-78
2022/08/03 11:37:34;;;;;;;7.28;5.20;;;;;;;;;;5037193;28;20075;-78
2022/08/03 11:40:01;;;;;;;7.90;5.82;;;;;;;;;;5032576;28;20014;-78
2022/08/03 11:42:28;;;;;;;12.43;4.85;;;;;;;;;;5036114;28;20032;-76
2022/08/03 11:44:54;;;;;;;6.75;3.83;;;;;;;;;;5034415;28;20137;-76
2022/08/03 11:47:21;;;;;;;5.18;3.75;;;;;;;;;;5034680;28;20127;-77
2022/08/03 11:49:48;;;;;;;12.75;5.32;;;;;;;;;;5035038;28;20029;-77
2022/08/03 11:52:15;;;;;;;10.70;4.88;;;;;;;;;;5033095;28;20053;-76
2022/08/03 11:54:42;;;;;;;5.25;4.13;;;;;;;;;;5020718;28;20021;-77
2022/08/03 11:57:08;;;;;;;7.30;6.07;;;;;;;;;;5033396;28;20040;-77
2022/08/03 11:59:36;;;;;;;8.57;5.57;;;;;;;;;;5034380;28;20029;-80
2022/08/03 12:02:08;;;;;;;16.50;14.75;;;;;;;;;;5033469;28;20014;-78
2022/08/03 12:05:09;;;;;;;11.37;7.33;;;;;;;;;;5033373;28;20029;-78
2022/08/03 12:07:45;;;;;;;5.65;4.20;;;;;;;;;;5012040;28;20038;-79
2022/08/03 12:10:13;;;;;;;6.55;3.95;;;;;;;;;;5014117;28;20048;-79
2022/08/03 12:12:40;;;;;;;5.40;3.63;;;;;;;;;;5028721;28;20057;-78
2022/08/03 12:15:06;;;;;;;22.10;19.75;;;;;;;;;;5034232;28;20057;-77
2022/08/03 12:17:36;;;;;;;7.10;3.00;;;;;;;;;;5032692;28;20477;-76
2022/08/03 12:20:04;;;;;;;3.55;2.60;;;;;;;;;;5020614;28;20026;-80
2022/08/03 12:22:31;;;;;;;6.13;3.45;;;;;;;;;;5032645;28;20022;-80
2022/08/03 12:24:57;;;;;;;7.05;5.22;;;;;;;;;;5033699;28;20101;-79
2022/08/03 12:27:24;;;;;;;17.85;15.07;;;;;;;;;;5033789;28;20481;-78
2022/08/03 12:29:51;;;;;;;25.85;23.27;;;;;;;;;;5033187;28;20025;-77
2022/08/03 12:32:17;;;;;;;26.77;23.85;;;;;;;;;;5033376;28;20045;-77
2022/08/03 12:34:47;;;;;;;11.50;9.90;;;;;;;;;;5033163;28;20032;-77
2022/08/03 12:37:13;;;;;;;7.10;4.63;;;;;;;;;;5024968;28;20026;-77
2022/08/03 12:39:40;;;;;;;18.75;16.40;;;;;;;;;;5027977;28;20033;-76
2022/08/03 12:42:08;;;;;;;19.85;15.70;;;;;;;;;;5033375;28;20029;-77
2022/08/03 12:44:35;;;;;;;11.68;10.43;;;;;;;;;;5019283;28;20018;-76
2022/08/03 12:47:05;;;;;;;19.85;16.90;;;;;;;;;;5033558;28;20021;-75
2022/08/03 12:50:04;;;;;;;13.50;12.15;;;;;;;;;;5033320;28;20041;-77
2022/08/03 12:52:42;;;;;;;26.13;23.55;;;;;;;;;;5012121;28;20037;-77
2022/08/03 12:55:18;;;;;;;37.67;34.05;;;;;;;;;;5031351;28;20016;-76
2022/08/03 12:57:44;;;;;;;14.18;10.05;;;;;;;;;;5032984;28;20017;-77
2022/08/03 13:00:14;;;;;;;11.27;9.00;;;;;;;;;;5033028;28;20025;-77
2022/08/03 13:02:40;;;;;;;26.70;24.10;;;;;;;;;;5036482;28;20079;-76
2022/08/03 13:05:10;;;;;;;33.08;29.50;;;;;;;;;;5031929;28;20033;-78
2022/08/03 13:07:40;;;;;;;19.90;17.83;;;;;;;;;;5031981;28;20036;-78
2022/08/03 13:10:07;;;;;;;6.53;4.15;;;;;;;;;;5033737;28;20106;-78
2022/08/03 13:12:34;;;;;;;10.80;9.90;;;;;;;;;;5032897;28;20026;-78
2022/08/03 13:15:01;;;;;;;5.20;4.50;;;;;;;;;;5032494;28;20021;-78
2022/08/03 13:17:27;;;;;;;6.57;4.88;;;;;;;;;;5034778;28;20097;-77
2022/08/03 13:19:53;;;;;;;12.07;10.88;;;;;;;;;;5032294;28;20040;-77
2022/08/03 13:22:21;;;;;;;11.55;10.35;;;;;;;;;;5031123;28;20017;-78
2022/08/03 13:24:48;;;;;;;11.73;6.95;;;;;;;;;;5032472;28;20072;-77
2022/08/03 13:27:14;;;;;;;4.32;3.70;;;;;;;;;;5032258;28;20041;-77
2022/08/03 13:29:43;;;;;;;5.32;4.50;;;;;;;;;;5032647;28;20103;-78
2022/08/03 13:32:10;;;;;;;13.77;9.38;;;;;;;;;;5032128;28;20165;-77
2022/08/03 13:34:37;;;;;;;55.25;50.35;;;;;;;;;;5030950;28;20036;-78
2022/08/03 13:37:03;;;;;;;24.63;22.17;;;;;;;;;;5017703;28;20026;-78
2022/08/03 13:39:30;;;;;;;7.80;7.07;;;;;;;;;;5032365;28;20057;-76
2022/08/03 13:41:56;;;;;;;18.55;16.63;;;;;;;;;;5037957;28;20477;-78
2022/08/03 13:44:22;;;;;;;14.95;7.85;;;;;;;;;;5034813;28;20097;-78
2022/08/03 13:46:48;;;;;;;20.02;18.02;;;;;;;;;;5031624;28;20025;-78
2022/08/03 13:49:14;;;;;;;24.92;22.25;;;;;;;;;;5031687;28;20029;-78
2022/08/03 13:51:40;;;;;;;11.38;9.73;;;;;;;;;;5031862;28;20022;-77
2022/08/03 13:54:06;;;;;;;14.30;12.85;;;;;;;;;;5030929;28;20539;-77
2022/08/03 13:56:33;;;;;;;15.07;12.40;;;;;;;;;;5030172;28;20022;-78
2022/08/03 13:58:59;;;;;;;18.02;16.38;;;;;;;;;;5018129;28;20025;-78
2022/08/03 14:01:25;;;;;;;27.40;24.92;;;;;;;;;;5030745;28;20483;-78
2022/08/03 14:03:53;;;;;;;29.15;26.63;;;;;;;;;;5038402;28;20394;-79
2022/08/03 14:06:23;;;;;;;25.63;23.42;;;;;;;;;;5032057;28;20025;-79
2022/08/03 14:08:49;;;;;;;26.77;24.33;;;;;;;;;;5032075;28;20053;-77
2022/08/03 14:11:16;;;;;;;51.85;47.28;;;;;;;;;;5030447;28;20465;-79
2022/08/03 14:13:42;;;;;;;63.13;57.33;;;;;;;;;;5031614;28;20028;-77
2022/08/03 14:16:08;;;;;;;12.02;10.82;;;;;;;;;;5031553;28;20440;-76
2022/08/03 14:18:34;;;;;;;12.95;7.22;;;;;;;;;;5031671;28;20025;-75
2022/08/03 14:21:01;;;;;;;29.33;26.55;;;;;;;;;;5031398;28;20024;-78